NWS Home NWS Lubbock West Texas Mesonet Day over Day changes as of 0751 PM, Wed Jul 08, 2020

Latest   N   C   S   Daily Sum   3hrΔ   24hrΔ   Soil Data 
Site Map   24hr Precip   72hr Precip   Google Plot


Station Time of Last Temp Today Temp Yesterday Delta-T Dewpoint Today Dewpoint Yesterday Delta-Td Delta-Pressure (mB)
Reese Center  07:45 PM 97 90.2 6.7 56.1 58 -1.8 -3.4
Abernathy  07:45 PM 96.6 89.1 7.5 55.5 58.3 -2.8 -3.5
Plainview  07:45 PM 96 89.1 6.9 55.8 59 -3.3 -3.6
Tahoka  07:45 PM 96.8 90.4 6.4 56.6 59.2 -2.6 -3.1
Slaton  07:45 PM 96.7 89.3 7.4 56.2 60.3 -4.1 -3.2
Levelland  07:45 PM 96.7 91 5.6 54.2 52 2.1 -3.7
Roaring Springs  07:45 PM 98.1 88.3 9.9 57.5 63.3 -5.8 -3.6
Floydada  07:45 PM 96 88.7 7.3 51.9 58 -6.1 -3.3
Ralls  07:45 PM 95.5 88.2 7.3 52.9 56.3 -3.3 -3.3
Brownfield  07:45 PM 98.2 90.7 7.5 53.9 57.2 -3.3 -3.3
Muleshoe  07:45 PM 98 90.5 7.5 49 53.2 -4.2 -3.7
Morton  07:45 PM 97.9 91.8 6.1 47.8 49.3 -1.5 -3.3
Comanche Springs  07:45 PM 99 88 11 66.5 69.3 -2.8 -4.3
O'Donnell  07:45 PM 96.7 90.2 6.4 55.9 59.3 -3.4 -3.1
Seagraves  07:45 PM 96.6 91.1 5.5 55.2 56.7 -1.5 -3.4
Amherst  07:45 PM 98.3 90.2 8.1 47.2 54.2 -7 -3.7
Plains  07:45 PM 100.2 91.6 8.6 51 52.8 -1.8 -3.3
Lamesa  07:45 PM 97.8 91.2 6.6 54 58.2 -4.2 -3
Hart  07:45 PM 95.8 88.5 7.3 55.2 57.4 -2.2 -3.8
Friona  07:45 PM 98.9 87.1 11.8 40.6 54.8 -14.2 -4.2
Dimmitt  07:45 PM 97.8 89.3 8.5 51.7 54.5 -2.8 -4
Tulia  07:45 PM 96.9 88.7 8.2 56.8 60.2 -3.5 -3.9
Silverton  07:45 PM 95.1 87.5 7.6 56 58.9 -2.8 -3.8
Post  07:45 PM 96.8 91.4 5.4 54.7 57.1 -2.4 -3.1
Seminole  07:45 PM 96 91 5.1 51.6 52.5 -0.9 -3.3
Gail  07:45 PM 98.8 89.7 9.1 54.5 63.6 -9 -3.1
White River Lake  07:45 PM 96.8 88.8 8 57.1 61.4 -4.3 -3.2
Graham  07:45 PM 96.4 89.8 6.6 54.4 57.4 -3 -3.1
Sundown  07:45 PM 96 91.2 4.9 50.8 54.2 -3.4 -3.3
Anton  07:45 PM 97.2 91.1 6.1 54.2 55.8 -1.6 -3.5
Fluvanna  07:45 PM 95.9 88.9 7 58.2 63.5 -5.4 -3
Spur  07:45 PM 97.6 90.2 7.4 61.3 63 -1.7 -3.5
Northwest Lubbock  07:45 PM 98.2 90.6 7.6 54.8 56.9 -2.1 -3.3
Guthrie  07:45 PM 97.7 89.9 7.8 58.9 60.7 -1.7 -3.9
Clarendon  07:45 PM 97.2 87.4 9.9 56.3 58 -1.7 -4.9
Paducah  07:45 PM 97.3 87.3 10 57.6 64.2 -6.6 -4
Snyder  07:45 PM 95.7 89.1 6.6 63 65.7 -2.7 -2.9
Memphis  07:45 PM 98.1 89.6 8.5 58.2 61.9 -3.7 -4.6
Jayton  07:45 PM 100 89.9 10.2 60.5 64.4 -3.9 -3.7
Pampa  07:45 PM 93.8 86.8 7.1 60.6 59.8 0.8 -4.9
Aspermont  07:45 PM 97.7 90.9 6.9 68.3 66.5 1.8 -3.6
Hereford  07:45 PM 99.1 90.4 8.7 45.2 52 -6.8 -4.2
Goodlett  07:45 PM 99.8 89 10.9 62 66 -4 -4.3
McLean  07:45 PM 94.7 86.9 7.8 60.7 62.6 -2 -4.7
Denver City  07:45 PM 97.6 90.5 7.1 44.9 47.8 -2.8 -3.2
Lake Alan Henry  07:45 PM 99.8 92.3 7.5 58 63.6 -5.5 -3.1
Wolfforth  07:45 PM 96.9 89.9 7 56.2 58.5 -2.3 -3.2
Andrews  07:45 PM 98.6 93.6 5 53.8 54 -0.2 -2.9
Turkey  07:45 PM 99.8 89.7 10.1 57.8 61.5 -3.7 -4.4
Childress  07:45 PM 97.7 87.3 10.4 59.3 64.9 -5.5 -4.3
Tatum  07:45 PM 99.9 91.9 8.1 42.3 49.7 -7.4 -3.1
Northfield  07:45 PM 100.3 90 10.3 53.9 60.5 -6.5 -4.4
Dora  07:45 PM 98.5 90.6 7.9 37.6 51.7 -14.1 -3
Northwest San Angelo  07:45 PM 92.3 76.1 16.2 66.3 67.7 -1.4 -3.7
Saint Lawrence  07:45 PM 97.9 87.3 10.6 57.7 59 -1.2 -3.3
Haskell  07:45 PM 96.1 90.3 5.8 67.3 65.9 1.5 -3.4
Wall  07:45 PM 92.5 74.1 18.3 66.9 70.7 -3.8 -3.4
Seymour  07:45 PM 97 88.5 8.6 67.8 69.2 -1.4 -4
Knox City  07:45 PM 100.2 91.7 8.5 64.9 67.2 -2.3 -4.2
Guadalupe Mtns Park  07:45 PM 89.1 78.5 10.6 52.7 52.1 0.6 -2.6
Caprock Canyons   07:45 PM 98.1 88.9 9.2 53.8 58.6 -4.8 -4.4
Odell  07:45 PM 94.6 86.8 7.8 72.3 70.1 2.2 -4.2
Coyanosa  07:45 PM 101.1 96.1 5 52.9 58.3 -5.5 -2.2
Big Lake  07:45 PM 95.4 82.3 13.2 61 61.7 -0.7 -3
Junction  07:45 PM 95.3 81.4 13.9 65.5 69.5 -4 -3
Hobbs  07:45 PM 99.6 91.5 8.1 43.3 47 -3.7 -3.1
Canadian  07:45 PM 96.6 89.3 7.3 63.5 64.2 -0.7 -5.2
Palo Duro Canyon State Park Rim  07:45 PM 97.6 88 9.6 56.7 59.5 -2.8 -4.6
Bootleg  07:45 PM 96.2 88.5 7.7 44 54.1 -10.1 -3.8
Sterling City  07:45 PM 97.5 82.7 14.8 60 63.4 -3.4 -3.6
Mertzon  07:45 PM 95.8 74.1 21.6 64.6 67.6 -3 -3.7
Persimmon Gap  07:45 PM 98.8 94 4.9 55.4 59.2 -3.8 -2.2
Weinert  07:45 PM 98.2 89.9 8.3 65.8 66.3 -0.5 -3.7
Claude 12 Southwest  07:45 PM 98 87.1 10.9 54.9 58.9 -3.9 -4.5
Amarillo 7 South Southeast  07:45 PM 97.4 88.2 9.2 56.2 58.7 -2.5 -4.6
Umbarger  07:45 PM 96.6 88.1 8.5 54.8 58.9 -4.1 -4.2
Lomax  07:45 PM 99.7 89.9 9.8 56.5 64.2 -7.6 -3.2
Amarillo 9 North Northeast  07:45 PM 99.2 90.1 9.1 57 57.9 -0.9 -5
Aiken  07:45 PM 94 88.5 5.5 59 62.2 -3.2 -3.5
Sweetwater  07:45 PM 93.3 83.2 10.2 66.1 69.3 -3.1 -3
Dozier  07:45 PM 98.1 89 9.1 61.9 66.6 -4.7 -4.8
Amarillo 15 North Northwest  07:45 PM 101.4 92 9.4 50.9 57 -6.1 -5
Menard  07:45 PM 91.4 74.6 16.8 67.8 69 -1.2 -3.2
Tarzan  07:45 PM 98.8 92.3 6.5 59.2 60.5 -1.3 -3.1
Goodnight  07:45 PM 98.1 87.4 10.7 55 58.3 -3.3 -4.9
Boys Ranch   07:45 PM 101.8 93.6 8.2 50 56.9 -6.9 -5
Fort McKavett  07:45 PM 95.6 81.4 14.2 66.1 66.8 -0.6 -2.7
Fort Chadbourne  07:45 PM 91.2 78.3 12.9 67 69.5 -2.5 -3.4
Palo Duro Canyon State Park Floor  07:45 PM 101.6 91.3 10.3 57.4 60.9 -3.5 -4.8
Fort Lancaster  07:45 PM 97.8 79.5 18.3 64.6 71.2 -6.6 -2.5
Dell City 1N  07:45 PM 99.2 86.1 13.1 53.6 55.2 -1.6 -3.1
Clyde  07:45 PM 92.1 79.7 12.4 70.2 68.8 1.4 -2.8
Snyder SSW  07:45 PM 97.8 89.3 8.5 64.3 67.6 -3.3 -3
Panhandle  07:45 PM 94.7 85 9.7 56.9 62.8 -5.9 -5
Vigo Park  07:45 PM 94.5 87.6 6.9 59.3 61.3 -2 -4
Welch  07:45 PM 97.7 90.4 7.3 57 60.8 -3.9 -3.2
Throckmorton  07:45 PM 95.1 87.8 7.4 70.6 72.3 -1.7 -3.5
Sierra Blanca  07:45 PM 91.1 83.6 7.6 51.2 59.4 -8.2 -2.2
Fort Lewis CO  07:45 PM 80.7 80.2 0.4 29.4 24.7 4.7 -0.1
New Home  07:45 PM 96.5 90.3 6.2 58.1 57.6 0.4 -3.2
McCamey  07:45 PM 99.1 86.2 12.9 60.7 64.7 -4 -3.1
Stamford  07:45 PM 96.5 89.2 7.3 69.6 71.2 -1.6 -3.1
Crowell  07:45 PM 97.8 87 10.8 68.1 70.4 -2.3 -4.4
Stinnett  07:45 PM 99.1 89.4 9.6 56.8 54.9 2 -5.7
Colorado City  07:45 PM 96.7 87.8 8.9 65.1 69.4 -4.2 -3.2
Happy  07:45 PM 96.5 88.6 7.9 58.1 59.8 -1.7 -4.1
Endee  07:45 PM 98.9 92.6 6.3 43 55 -12 -4.2
JA Ranch  07:45 PM 100.4 89 11.4 59.2 62 -2.8 -5.1
Adrian  07:45 PM 98.1 89.5 8.6 38.3 53.2 -14.8 -4.1
Lesley  07:45 PM 100.1 90.2 10 60.7 63.9 -3.2 -4.8
Earth  07:45 PM 98.7 90.5 8.2 52.1 56.3 -4.1 -3.8
Van Horn  07:45 PM 97.2 92.7 4.5 51.7 50 1.7 -2.4
Rotan  07:45 PM 99.2 92 7.2 63.8 65.6 -1.8 -3.1
Fritch  07:45 PM 99.1 88.5 10.6 57.6 62.5 -4.9 -5.9
Estelline  07:45 PM 98.4 89.1 9.2 61.5 65.9 -4.4 -4.5
Crane  07:45 PM 100.3 89.2 11.1 58.6 62 -3.4 -3.2
Hackberry  07:45 PM 97.7 87.9 9.9 67 68.8 -1.8 -4.2
Romero 11SSW  07:45 PM 99 90.4 8.5 44.6 56.2 -11.6 -4.4
Palo Duro Reservoir 1NW  07:45 PM 100 88.2 11.9 56.3 58.6 -2.4 -6.5
South Plains 3ENE  07:45 PM 96 88.6 7.4 57.7 60.5 -2.9 -3.6
Lake McClellan 2NW  07:45 PM 93 85.9 7.2 62.4 60.7 1.7 -4.8
Segovia 7SSW  07:45 PM 92 81.7 10.3 63.7 68.7 -5 -2.3
Castolon 1NW BBNP  07:45 PM 104.8 85.6 19.2 55 62.9 -8 -3.8
Smyer  07:45 PM 97.5 90.3 7.2 56.3 57.5 -1.2 -3.4
Doole 3WNW  07:45 PM 89.3 74 15.3 70.2 69.6 0.6 -3.1
Stratford  07:45 PM 96.7 86.3 10.4 49.4 59 -9.6 -6.1
Truscott  07:45 PM 98.4 89 9.4 65.9 68.1 -2.1 -4.1
Hefner  07:45 PM 98.1 90.3 7.8 66.4 68.8 -2.4 -3.9
Kent I10-I20 Split  07:45 PM 95.3 92.6 2.8 52.9 48.8 4.1 -2.1
Olton  07:45 PM 95.5 88.3 7.1 58.2 57.5 0.7 -3.8
McAdoo  07:45 PM 95.9 87.2 8.7 58.3 63.3 -5.1 -3.1
Borger  07:45 PM 99.1 89.8 9.3 54.1 55.5 -1.4 -5.4

West Texas Mesonet Home   Site Map/Menu  NWS Lubbock Soil Data  Daily Summary Page  24hr Precip  72hr Precip  Google Plot